Time;durP1;ratioP1;P1;durP2;ratioP2;P2;SDS_P1;SDS_P2;PMS_P1;PMS_P2;Temp;Humidity;BMP_temperature;BMP_pressure;BME280_temperature;BME280_humidity;BME280_pressure;Samples;Min_cycle;Max_cycle;Signal;HPM_P1;HPM_P2
2022/11/16 00:06:15;;;;;;;13.67;10.87;;;;;12.90;97626.00;;;;16653554;28;20314;-48
2022/11/16 00:14:20;;;;;;;17.63;15.97;;;;;13.90;97626.00;;;;16668428;28;20253;-49
2022/11/16 00:22:22;;;;;;;13.53;11.70;;;;;13.90;97623.00;;;;16651628;28;20304;-48
2022/11/16 00:30:26;;;;;;;14.07;11.87;;;;;13.90;97620.00;;;;16651398;28;20234;-49
2022/11/16 00:38:28;;;;;;;13.27;11.13;;;;;14.00;97613.00;;;;16648334;28;20219;-49
2022/11/16 00:46:32;;;;;;;15.00;12.03;;;;;13.60;97606.00;;;;16640319;28;20619;-48
2022/11/16 00:54:37;;;;;;;11.60;10.20;;;;;13.60;97614.00;;;;16622085;28;20296;-49
2022/11/16 01:02:43;;;;;;;11.90;10.80;;;;;13.50;97588.00;;;;16646121;28;20325;-50
2022/11/16 01:10:45;;;;;;;11.23;10.23;;;;;13.70;97592.00;;;;16649955;28;20281;-48
2022/11/16 01:18:51;;;;;;;10.40;9.37;;;;;13.50;97582.00;;;;16645848;28;20283;-48
2022/11/16 01:26:55;;;;;;;10.83;9.73;;;;;13.50;97582.00;;;;16646327;28;20340;-48
2022/11/16 01:35:00;;;;;;;11.13;9.97;;;;;13.50;97576.00;;;;16643341;28;20245;-49
2022/11/16 01:43:13;;;;;;;13.00;11.47;;;;;13.50;97580.00;;;;16636717;28;20229;-49
2022/11/16 01:51:17;;;;;;;10.50;9.50;;;;;13.60;97573.00;;;;16643900;28;20214;-49
2022/11/16 01:59:20;;;;;;;11.13;10.03;;;;;13.20;97573.00;;;;16644286;28;20321;-48
2022/11/16 02:09:52;;;;;;;10.47;9.47;;;;;13.10;97575.00;;;;16644378;28;20221;-48
2022/11/16 02:16:05;;;;;;;11.20;10.10;;;;;13.10;97559.00;;;;16642049;28;20248;-49
2022/11/16 02:24:40;;;;;;;11.20;10.17;;;;;13.40;97550.00;;;;16645451;28;20279;-48
2022/11/16 02:32:48;;;;;;;10.40;8.60;;;;;13.70;97558.00;;;;16649481;28;20747;-48
2022/11/16 02:40:52;;;;;;;11.07;10.07;;;;;13.50;97549.00;;;;16656506;28;20226;-47
2022/11/16 02:49:05;;;;;;;10.30;9.30;;;;;13.30;97552.00;;;;16655531;28;20586;-48
2022/11/16 02:57:37;;;;;;;12.10;10.90;;;;;13.20;97559.00;;;;16655736;28;20229;-48
2022/11/16 03:05:47;;;;;;;10.93;9.93;;;;;13.40;97554.00;;;;16640790;28;20240;-49
2022/11/16 03:13:51;;;;;;;11.63;10.50;;;;;13.20;97536.00;;;;16650472;28;20261;-49
2022/11/16 03:21:57;;;;;;;11.07;9.97;;;;;13.20;97541.00;;;;16653955;28;20827;-48
2022/11/16 03:30:04;;;;;;;11.33;10.23;;;;;13.10;97534.00;;;;16654241;28;20207;-48
2022/11/16 03:38:10;;;;;;;11.23;9.87;;;;;13.00;97529.00;;;;16652816;28;20564;-48
2022/11/16 03:46:17;;;;;;;10.93;9.93;;;;;13.10;97533.00;;;;16642057;28;20226;-49
2022/11/16 03:54:22;;;;;;;12.23;10.17;;;;;13.00;97522.00;;;;16650429;28;20225;-49
2022/11/16 04:02:25;;;;;;;11.63;9.90;;;;;13.10;97523.00;;;;16653139;28;20637;-47
2022/11/16 04:44:06;;;;;;;10.23;9.23;;;;;13.20;97578.00;;;;16610803;28;20304;-48
2022/11/16 04:52:10;;;;;;;10.50;9.50;;;;;13.60;97575.00;;;;16648093;28;20706;-49
2022/11/16 05:00:16;;;;;;;10.87;9.77;;;;;13.40;97570.00;;;;16648176;28;20255;-48
2022/11/16 05:08:20;;;;;;;8.87;8.03;;;;;14.00;97541.00;;;;16647454;28;20226;-48
2022/11/16 05:16:29;;;;;;;10.13;8.80;;;;;13.90;97558.00;;;;16644096;28;20586;-49
2022/11/16 05:24:35;;;;;;;9.80;8.90;;;;;13.80;97549.00;;;;16649923;28;20222;-48
2022/11/16 05:32:40;;;;;;;15.30;11.07;;;;;13.90;97566.00;;;;16660742;28;20268;-49
2022/11/16 05:40:45;;;;;;;11.50;10.30;;;;;14.10;97567.00;;;;16621016;28;20231;-48
2022/11/16 05:48:49;;;;;;;10.00;9.10;;;;;13.90;97566.00;;;;16652638;28;20586;-48
2022/11/16 05:56:53;;;;;;;9.80;7.37;;;;;14.10;97577.00;;;;16653399;28;20243;-47
2022/11/16 06:04:58;;;;;;;8.13;7.30;;;;;14.20;97565.00;;;;16626090;28;20742;-48
2022/11/16 06:13:01;;;;;;;10.60;8.70;;;;;13.90;97573.00;;;;16670768;28;20703;-48
2022/11/16 06:21:06;;;;;;;10.13;9.17;;;;;13.50;97582.00;;;;16622813;28;20313;-48
2022/11/16 06:29:08;;;;;;;11.97;10.77;;;;;13.50;97589.00;;;;16639442;28;20230;-46
2022/11/16 06:37:12;;;;;;;14.03;11.37;;;;;12.90;97602.00;;;;16656501;28;20248;-47
2022/11/16 06:45:15;;;;;;;11.13;10.20;;;;;13.10;97606.00;;;;16623646;28;20209;-48
2022/11/16 06:53:25;;;;;;;9.80;7.30;;;;;16.50;97587.00;;;;16654072;28;20300;-45
2022/11/16 07:01:28;;;;;;;8.40;7.53;;;;;19.70;97581.00;;;;16632404;28;20296;-46
2022/11/16 07:09:39;;;;;;;8.20;7.40;;;;;16.40;97606.00;;;;16649315;28;20284;-48
2022/11/16 07:17:42;;;;;;;7.30;6.60;;;;;15.10;97630.00;;;;16619247;28;20227;-48
2022/11/16 07:25:46;;;;;;;7.10;6.40;;;;;14.00;97652.00;;;;16621753;28;20421;-47
2022/11/16 07:33:52;;;;;;;7.40;6.70;;;;;14.00;97664.00;;;;16612391;28;20227;-47
2022/11/16 07:42:20;;;;;;;8.87;8.10;;;;;13.70;97663.00;;;;16615308;28;20211;-47
2022/11/16 07:50:43;;;;;;;6.90;6.20;;;;;14.30;97663.00;;;;16646124;28;20211;-47
2022/11/16 07:58:48;;;;;;;7.53;6.83;;;;;13.50;97681.00;;;;16621158;28;20250;-47
2022/11/16 08:06:51;;;;;;;8.60;7.77;;;;;13.60;97678.00;;;;16630247;28;20237;-47
2022/11/16 08:14:56;;;;;;;8.90;8.10;;;;;13.80;97679.00;;;;16620950;28;20238;-47
2022/11/16 08:23:00;;;;;;;8.43;6.27;;;;;14.60;97671.00;;;;16619546;28;20248;-48
2022/11/16 08:31:11;;;;;;;7.67;7.07;;;;;15.40;97668.00;;;;16627987;28;20690;-47
2022/11/16 08:39:14;;;;;;;10.73;9.70;;;;;15.80;97664.00;;;;16645204;28;20312;-48
2022/11/16 08:47:18;;;;;;;6.33;5.73;;;;;16.40;97662.00;;;;16633784;28;20257;-48
2022/11/16 08:55:30;;;;;;;2.60;2.40;;;;;16.10;97683.00;;;;16643842;28;20229;-47
2022/11/16 09:03:34;;;;;;;1.70;1.50;;;;;16.20;97692.00;;;;16641668;28;20233;-47
2022/11/16 09:11:37;;;;;;;1.70;1.60;;;;;16.00;97694.00;;;;16591240;28;20218;-47
2022/11/16 09:19:41;;;;;;;2.23;2.03;;;;;16.20;97682.00;;;;16602748;28;20268;-48
2022/11/16 09:27:43;;;;;;;4.33;3.27;;;;;16.20;97681.00;;;;16600470;28;20248;-48
2022/11/16 09:35:47;;;;;;;5.70;4.00;;;;;16.90;97680.00;;;;16593953;28;20234;-48
2022/11/16 09:43:54;;;;;;;4.70;3.40;;;;;17.00;97681.00;;;;16635545;28;20900;-47
2022/11/16 09:52:01;;;;;;;7.00;6.30;;;;;20.60;97674.00;;;;16629700;28;20217;-45
2022/11/16 10:00:11;;;;;;;6.97;6.10;;;;;19.40;97675.00;;;;16623784;28;20227;-46
2022/11/16 10:08:22;;;;;;;11.90;10.70;;;;;20.70;97663.00;;;;16629521;28;20244;-46
2022/11/16 10:16:31;;;;;;;8.03;6.67;;;;;21.70;97646.00;;;;16628889;28;20231;-46
2022/11/16 10:24:43;;;;;;;7.70;6.07;;;;;21.80;97654.00;;;;16600855;28;20215;-46
2022/11/16 10:32:49;;;;;;;5.53;5.00;;;;;21.70;97647.00;;;;16595608;28;20235;-45
2022/11/16 10:40:55;;;;;;;15.33;12.87;;;;;20.10;97635.00;;;;16581538;28;20320;-45
2022/11/16 10:49:04;;;;;;;3.83;3.43;;;;;20.80;97627.00;;;;16616062;28;20372;-45
2022/11/16 10:57:12;;;;;;;2.70;2.20;;;;;21.00;97631.00;;;;16633685;28;20722;-45
2022/11/16 11:05:19;;;;;;;5.10;3.30;;;;;21.80;97622.00;;;;16642735;28;20219;-47
2022/11/16 11:13:27;;;;;;;4.50;2.50;;;;;22.20;97612.00;;;;16605282;28;20787;-46
2022/11/16 11:21:30;;;;;;;7.60;2.30;;;;;22.10;97614.00;;;;16634128;28;20644;-46
2022/11/16 11:29:37;;;;;;;4.10;3.70;;;;;20.80;97613.00;;;;16630250;28;20230;-48
2022/11/16 11:37:40;;;;;;;2.83;2.20;;;;;19.60;97602.00;;;;16644512;28;20729;-48
2022/11/16 11:45:46;;;;;;;3.13;1.73;;;;;20.00;97605.00;;;;16643578;28;20231;-48
2022/11/16 11:53:54;;;;;;;3.30;2.83;;;;;20.40;97597.00;;;;16638148;28;20222;-48
2022/11/16 12:02:10;;;;;;;2.83;1.33;;;;;20.40;97594.00;;;;16659005;28;20230;-48
2022/11/16 12:10:19;;;;;;;4.07;1.20;;;;;19.40;97593.00;;;;16655901;28;20278;-48
2022/11/16 12:18:42;;;;;;;2.17;1.77;;;;;18.40;97588.00;;;;16647864;28;20222;-49
2022/11/16 12:26:52;;;;;;;2.07;1.20;;;;;19.20;97587.00;;;;16616444;22;20235;-84
2022/11/16 12:35:21;;;;;;;3.20;1.20;;;;;19.90;97579.00;;;;16615188;28;20224;-83
2022/11/16 12:43:31;;;;;;;9.33;2.60;;;;;20.10;97576.00;;;;16598083;28;20235;-86
2022/11/16 12:51:47;;;;;;;1.40;1.17;;;;;21.20;97555.00;;;;16568896;28;20211;-86
2022/11/16 13:00:02;;;;;;;1.87;1.57;;;;;22.00;97543.00;;;;16586802;28;20770;-88
2022/11/16 13:08:10;;;;;;;2.40;1.43;;;;;21.30;97541.00;;;;16591624;28;20219;-85
2022/11/16 13:16:15;;;;;;;1.77;1.10;;;;;21.30;97547.00;;;;16556368;28;20622;-86
2022/11/16 13:24:32;;;;;;;1.50;0.80;;;;;20.80;97537.00;;;;16584453;28;20303;-83
2022/11/16 13:32:50;;;;;;;2.47;1.47;;;;;21.00;97537.00;;;;16548512;28;20266;-84
2022/11/16 13:40:54;;;;;;;3.03;1.10;;;;;19.50;97535.00;;;;16584541;28;20240;-82
2022/11/16 13:48:56;;;;;;;1.57;0.97;;;;;19.70;97545.00;;;;16569896;28;20208;-82
2022/11/16 13:57:02;;;;;;;2.17;1.00;;;;;18.10;97543.00;;;;16590321;28;20306;-83
2022/11/16 14:05:10;;;;;;;2.53;0.80;;;;;17.00;97559.00;;;;16574796;28;20223;-81
2022/11/16 14:13:38;;;;;;;2.37;1.07;;;;;17.60;97542.00;;;;16565230;28;20231;-83
2022/11/16 14:21:48;;;;;;;1.70;1.00;;;;;17.50;97533.00;;;;16556143;28;20227;-83
2022/11/16 14:30:02;;;;;;;2.40;0.90;;;;;17.90;97518.00;;;;16570905;28;20220;-84
2022/11/16 14:38:07;;;;;;;10.80;1.80;;;;;17.60;97510.00;;;;16576005;28;20653;-83
2022/11/16 14:46:17;;;;;;;2.80;1.13;;;;;18.30;97510.00;;;;16558391;28;20220;-84
2022/11/16 14:54:26;;;;;;;5.50;1.53;;;;;18.70;97485.00;;;;16558287;28;20231;-84
2022/11/16 15:02:31;;;;;;;4.43;3.77;;;;;16.70;97502.00;;;;16574786;28;20683;-83
2022/11/16 15:10:33;;;;;;;11.73;9.27;;;;;15.60;97502.00;;;;16574881;28;20259;-83
2022/11/16 15:18:38;;;;;;;4.40;2.60;;;;;14.10;97529.00;;;;16592396;28;20227;-85
2022/11/16 15:26:40;;;;;;;6.63;3.33;;;;;13.90;97521.00;;;;16566982;28;20238;-82
2022/11/16 15:34:47;;;;;;;5.10;2.40;;;;;13.60;97530.00;;;;16590174;28;20224;-81
2022/11/16 15:42:53;;;;;;;3.63;3.33;;;;;13.50;97519.00;;;;16589594;28;20266;-83
2022/11/16 15:51:05;;;;;;;4.23;3.27;;;;;13.40;97510.00;;;;16615158;28;20215;-82
2022/11/16 15:59:13;;;;;;;9.80;5.80;;;;;12.70;97515.00;;;;16607610;28;20223;-82
2022/11/16 16:07:39;;;;;;;7.43;3.43;;;;;12.30;97523.00;;;;16604724;28;20215;-82
2022/11/16 16:15:41;;;;;;;7.10;3.60;;;;;12.20;97510.00;;;;16620341;28;20215;-82
2022/11/16 16:23:50;;;;;;;6.50;4.30;;;;;12.00;97519.00;;;;16591728;28;20242;-83
2022/11/16 16:31:53;;;;;;;3.97;3.57;;;;;12.00;97524.00;;;;16618739;28;20677;-83
2022/11/16 16:39:57;;;;;;;4.70;3.57;;;;;11.70;97513.00;;;;16600323;28;20235;-82
2022/11/16 16:47:59;;;;;;;6.83;4.13;;;;;11.60;97514.00;;;;16604595;28;20760;-82
2022/11/16 16:56:04;;;;;;;8.60;4.30;;;;;11.10;97502.00;;;;16590026;28;20224;-83
2022/11/16 17:04:06;;;;;;;10.23;4.23;;;;;11.10;97496.00;;;;16611283;28;20225;-84
2022/11/16 17:12:10;;;;;;;10.40;6.10;;;;;11.60;97487.00;;;;16625588;23;20235;-49
2022/11/16 17:20:13;;;;;;;7.00;5.20;;;;;11.40;97493.00;;;;16609695;28;20314;-49
2022/11/16 17:28:17;;;;;;;5.03;4.10;;;;;11.10;97478.00;;;;16601055;28;20534;-49
2022/11/16 17:36:20;;;;;;;9.57;5.30;;;;;12.00;97471.00;;;;16592874;28;20706;-48
2022/11/16 17:44:25;;;;;;;12.60;9.70;;;;;11.10;97464.00;;;;16617653;28;20221;-48
2022/11/16 17:52:28;;;;;;;7.40;6.63;;;;;12.00;97457.00;;;;16614886;28;20221;-49
2022/11/16 18:00:31;;;;;;;8.43;5.10;;;;;13.10;97439.00;;;;16599504;28;20760;-49
2022/11/16 18:08:35;;;;;;;9.77;6.63;;;;;13.30;97433.00;;;;16596527;28;20210;-49
2022/11/16 18:16:42;;;;;;;7.30;5.30;;;;;11.70;97433.00;;;;16617719;28;20641;-48
2022/11/16 18:24:44;;;;;;;12.60;6.80;;;;;11.50;97431.00;;;;16605306;28;20764;-48
2022/11/16 18:32:48;;;;;;;14.10;7.40;;;;;12.70;97409.00;;;;16606281;28;20229;-49
2022/11/16 18:41:03;;;;;;;7.93;6.00;;;;;13.10;97392.00;;;;16591285;28;20239;-49
2022/11/16 18:49:07;;;;;;;8.20;7.10;;;;;13.10;97381.00;;;;16581191;28;20206;-48
2022/11/16 18:57:10;;;;;;;12.03;7.50;;;;;13.00;97362.00;;;;16581766;28;20257;-49
2022/11/16 19:05:14;;;;;;;9.83;7.10;;;;;13.20;97356.00;;;;16582748;28;20698;-48
2022/11/16 19:13:17;;;;;;;10.57;8.10;;;;;11.30;97359.00;;;;16610063;28;20624;-50
2022/11/16 19:21:21;;;;;;;7.53;6.50;;;;;10.20;97380.00;;;;16604272;28;20224;-48
2022/11/16 19:29:24;;;;;;;9.87;6.17;;;;;10.80;97376.00;;;;16615219;28;20204;-48
2022/11/16 19:37:28;;;;;;;11.13;7.23;;;;;9.90;97386.00;;;;16602939;28;20219;-48
2022/11/16 19:45:30;;;;;;;8.23;7.40;;;;;10.90;97387.00;;;;16599196;28;20602;-49
2022/11/16 19:53:34;;;;;;;15.97;9.90;;;;;10.10;97392.00;;;;16596751;28;20790;-48
2022/11/16 20:01:37;;;;;;;8.87;7.97;;;;;10.50;97392.00;;;;16596304;28;20249;-48
2022/11/16 20:09:41;;;;;;;12.27;8.40;;;;;9.80;97419.00;;;;16616403;28;20235;-49
2022/11/16 20:17:43;;;;;;;12.80;8.33;;;;;10.30;97409.00;;;;16620500;28;20262;-48
2022/11/16 20:25:47;;;;;;;16.60;10.07;;;;;10.10;97358.00;;;;16618333;28;20219;-48
2022/11/16 20:33:51;;;;;;;15.67;13.50;;;;;9.80;97357.00;;;;16604671;28;20261;-48
2022/11/16 20:41:55;;;;;;;14.00;9.07;;;;;9.50;97354.00;;;;16620784;28;20254;-48
2022/11/16 20:49:57;;;;;;;12.30;8.57;;;;;9.60;97360.00;;;;16622732;28;20845;-49
2022/11/16 20:58:01;;;;;;;12.87;8.47;;;;;9.50;97361.00;;;;16621933;28;20226;-48
2022/11/16 21:06:07;;;;;;;9.00;6.87;;;;;9.40;97359.00;;;;16629579;28;20235;-48
2022/11/16 21:14:16;;;;;;;9.10;6.60;;;;;10.40;97324.00;;;;16629128;28;20352;-48
2022/11/16 21:22:21;;;;;;;11.40;8.23;;;;;9.90;97307.00;;;;16646982;28;20234;-46
2022/11/16 21:30:25;;;;;;;8.17;7.47;;;;;9.30;97314.00;;;;16621893;28;20297;-48
2022/11/16 21:38:28;;;;;;;17.93;7.60;;;;;9.10;97324.00;;;;16625664;28;20274;-48
2022/11/16 21:46:31;;;;;;;9.93;7.10;;;;;9.20;97321.00;;;;16623684;28;20207;-48
2022/11/16 21:54:54;;;;;;;11.30;8.00;;;;;9.10;97321.00;;;;16615885;28;20241;-47
2022/11/16 22:02:58;;;;;;;7.63;6.60;;;;;9.30;97310.00;;;;16636041;28;20919;-48
2022/11/16 22:11:01;;;;;;;8.47;7.10;;;;;9.40;97314.00;;;;16611129;28;20251;-49
2022/11/16 22:19:05;;;;;;;8.57;7.33;;;;;9.30;97310.00;;;;16635765;28;20310;-48
2022/11/16 22:27:07;;;;;;;9.23;7.83;;;;;9.90;97303.00;;;;16606299;28;20231;-48
2022/11/16 22:35:11;;;;;;;13.30;10.00;;;;;10.10;97297.00;;;;16619068;28;20222;-48
2022/11/16 22:43:14;;;;;;;13.53;10.83;;;;;9.70;97287.00;;;;16628722;28;20284;-48
2022/11/16 22:51:20;;;;;;;13.73;11.23;;;;;9.80;97274.00;;;;16627438;28;20301;-48
2022/11/16 22:59:23;;;;;;;17.30;7.83;;;;;9.90;97264.00;;;;16630753;28;20690;-48
2022/11/16 23:07:27;;;;;;;13.93;12.57;;;;;10.30;97245.00;;;;16656620;28;20279;-48
2022/11/16 23:32:13;;;;;;;7.93;6.80;;;;;10.90;97231.00;;;;16583048;28;20265;-49
2022/11/16 23:40:17;;;;;;;7.43;6.70;;;;;10.40;97220.00;;;;16632358;28;20313;-48
2022/11/16 23:48:20;;;;;;;8.63;7.73;;;;;11.80;97189.00;;;;16613961;28;20238;-48
2022/11/16 23:56:24;;;;;;;11.43;8.03;;;;;11.50;97186.00;;;;16639393;28;20215;-49
